Time;durP1;ratioP1;P1;durP2;ratioP2;P2;SDS_P1;SDS_P2;PMS_P1;PMS_P2;Temp;Humidity;BMP_temperature;BMP_pressure;BME280_temperature;BME280_humidity;BME280_pressure;Samples;Min_cycle;Max_cycle;Signal;HPM_P1;HPM_P2
2021/09/25 00:00:10;;;;;;;10.07;4.80;;;;;;;11.23;82.72;97597.53;4978126;28;20023;-77
2021/09/25 00:02:36;;;;;;;8.23;4.55;;;;;;;11.34;83.04;97622.69;4993842;28;20027;-76
2021/09/25 00:15:08;;;;;;;11.60;4.97;;;;;;;11.08;83.88;97620.78;4995938;28;20124;-76
2021/09/25 00:17:33;;;;;;;13.05;4.43;;;;;;;10.96;84.65;97618.00;4993880;28;20030;-76
2021/09/25 00:19:59;;;;;;;9.98;4.70;;;;;;;10.86;85.46;97623.06;4993842;28;20027;-78
2021/09/25 00:22:24;;;;;;;8.95;4.30;;;;;;;10.89;85.76;97630.91;4993581;28;20061;-77
2021/09/25 00:24:50;;;;;;;11.63;4.80;;;;;;;10.93;85.37;97627.09;4994757;28;20117;-76
2021/09/25 00:27:15;;;;;;;7.47;4.68;;;;;;;10.85;85.81;97621.38;4977427;28;20038;-76
2021/09/25 00:29:41;;;;;;;7.35;4.53;;;;;;;10.87;86.28;97627.47;4977288;28;20034;-77
2021/09/25 00:32:06;;;;;;;9.85;5.55;;;;;;;10.76;86.58;97603.22;4994652;28;20406;-77
2021/09/25 00:34:32;;;;;;;9.95;5.13;;;;;;;10.89;86.04;97614.84;4994770;28;20113;-76
2021/09/25 00:36:57;;;;;;;9.38;5.28;;;;;;;10.89;86.14;97610.38;5005087;28;20050;-76
2021/09/25 00:39:23;;;;;;;18.77;5.80;;;;;;;10.79;85.82;97597.66;4993284;28;20026;-76
2021/09/25 00:41:49;;;;;;;18.10;5.40;;;;;;;11.00;85.52;97631.13;4992964;28;20032;-76
2021/09/25 00:44:14;;;;;;;10.88;5.15;;;;;;;10.87;85.69;97606.06;4993472;28;20030;-77
2021/09/25 00:46:40;;;;;;;12.63;4.60;;;;;;;11.07;85.57;97634.28;4994291;28;20065;-76
2021/09/25 00:49:05;;;;;;;12.05;5.18;;;;;;;11.02;85.74;97634.56;4993084;28;20022;-76
2021/09/25 00:51:32;;;;;;;8.70;5.00;;;;;;;10.80;86.04;97596.69;4981796;28;20109;-77
2021/09/25 00:53:57;;;;;;;10.13;5.53;;;;;;;11.05;85.80;97634.34;5000852;28;20141;-76
2021/09/25 00:56:24;;;;;;;10.25;5.18;;;;;;;10.93;85.91;97621.75;4993039;28;20109;-77
2021/09/25 00:58:51;;;;;;;8.48;5.15;;;;;;;11.02;85.97;97641.72;4976413;28;20068;-77
2021/09/25 01:01:16;;;;;;;10.48;5.00;;;;;;;10.90;86.58;97640.66;4976485;28;20037;-78
2021/09/25 01:03:42;;;;;;;11.35;4.45;;;;;;;10.81;87.07;97633.22;4992819;28;20105;-77
2021/09/25 01:06:07;;;;;;;8.43;4.78;;;;;;;10.70;86.86;97630.34;4976745;28;20034;-77
2021/09/25 01:08:33;;;;;;;7.75;4.65;;;;;;;10.66;86.13;97631.47;4992902;28;20022;-77
2021/09/25 01:10:59;;;;;;;8.52;3.80;;;;;;;10.77;86.03;97663.78;4992922;28;20517;-77
2021/09/25 01:13:25;;;;;;;8.95;4.63;;;;;;;10.73;86.48;97656.91;4992628;28;20497;-76
2021/09/25 01:15:51;;;;;;;8.70;4.32;;;;;;;10.52;86.91;97647.50;4992392;28;20030;-76
2021/09/25 01:18:16;;;;;;;7.05;4.53;;;;;;;10.50;87.69;97662.75;4992536;28;20026;-76
2021/09/25 01:20:42;;;;;;;8.20;4.63;;;;;;;10.35;88.13;97645.81;4992517;28;20101;-76
2021/09/25 01:23:08;;;;;;;7.38;4.43;;;;;;;10.43;88.93;97656.91;4992299;28;20391;-77
2021/09/25 01:25:33;;;;;;;6.47;4.05;;;;;;;10.48;88.32;97657.53;4992498;28;20109;-76
2021/09/25 01:28:00;;;;;;;12.90;4.75;;;;;;;10.49;88.41;97659.22;4993360;28;20029;-76
2021/09/25 01:30:26;;;;;;;9.50;4.80;;;;;;;10.64;88.34;97677.03;4976232;28;20029;-78
2021/09/25 01:32:52;;;;;;;7.53;4.22;;;;;;;10.56;87.79;97665.94;4977182;28;20026;-76
2021/09/25 01:35:20;;;;;;;7.57;4.32;;;;;;;10.58;88.37;97679.22;4991896;28;20033;-77
2021/09/25 01:37:47;;;;;;;10.82;4.32;;;;;;;10.45;88.67;97663.06;4976357;28;20030;-76
2021/09/25 01:40:15;;;;;;;7.55;4.20;;;;;;;10.51;89.21;97678.72;4993082;28;20140;-76
2021/09/25 01:42:40;;;;;;;8.18;4.30;;;;;;;10.45;89.41;97664.88;4975940;28;20038;-77
2021/09/25 01:45:07;;;;;;;11.10;4.88;;;;;;;10.44;89.71;97663.13;4991854;28;20037;-76
2021/09/25 01:47:32;;;;;;;7.97;4.40;;;;;;;10.44;89.85;97679.19;4991887;28;20426;-76
2021/09/25 01:50:01;;;;;;;10.50;5.68;;;;;;;10.42;89.66;97684.63;4991953;28;20027;-76
2021/09/25 01:52:27;;;;;;;9.10;5.07;;;;;;;10.24;89.75;97665.16;4991732;28;20022;-77
2021/09/25 01:54:53;;;;;;;14.13;6.82;;;;;;;10.33;89.19;97691.38;4975261;28;20053;-76
2021/09/25 01:57:19;;;;;;;11.32;6.88;;;;;;;10.13;89.25;97672.97;4991738;28;20030;-76
2021/09/25 01:59:45;;;;;;;13.95;6.28;;;;;;;10.09;89.65;97676.72;4975556;28;20076;-76
2021/09/25 02:02:11;;;;;;;14.05;6.65;;;;;;;10.00;91.05;97692.41;4991831;28;20030;-77
2021/09/25 02:04:37;;;;;;;12.85;6.50;;;;;;;9.85;92.03;97687.94;4991932;28;20034;-76
2021/09/25 02:07:04;;;;;;;11.05;5.80;;;;;;;9.80;91.71;97696.25;4975486;28;20034;-75
2021/09/25 02:09:29;;;;;;;12.88;5.97;;;;;;;9.71;92.92;97702.09;4975278;28;20069;-76
2021/09/25 02:11:55;;;;;;;15.20;6.10;;;;;;;9.57;93.38;97683.28;4975392;28;20054;-75
2021/09/25 02:14:20;;;;;;;10.02;5.97;;;;;;;9.69;94.08;97693.31;4975116;28;20030;-76
2021/09/25 02:16:46;;;;;;;12.93;6.38;;;;;;;9.73;94.22;97697.53;4991563;28;20026;-76
2021/09/25 02:19:11;;;;;;;13.30;6.15;;;;;;;9.76;93.88;97690.19;4992723;28;20461;-77
2021/09/25 02:21:37;;;;;;;10.93;6.13;;;;;;;9.67;94.11;97671.16;4993043;28;20034;-76
2021/09/25 02:24:03;;;;;;;14.48;5.65;;;;;;;9.81;93.82;97704.16;4991316;28;20602;-76
2021/09/25 02:26:29;;;;;;;14.82;6.47;;;;;;;9.83;94.12;97706.75;4991117;28;20084;-76
2021/09/25 02:28:54;;;;;;;17.40;6.63;;;;;;;9.74;94.23;97693.91;4991509;28;20113;-76
2021/09/25 02:31:20;;;;;;;12.88;5.95;;;;;;;9.81;94.17;97708.66;4992473;28;20018;-76
2021/09/25 02:33:47;;;;;;;11.73;5.45;;;;;;;9.87;93.80;97729.69;4992850;28;20022;-76
2021/09/25 02:36:12;;;;;;;11.38;5.70;;;;;;;9.83;94.49;97722.78;4991182;28;20046;-76
2021/09/25 02:38:38;;;;;;;12.38;5.38;;;;;;;9.77;94.67;97713.31;4975169;28;20042;-75
2021/09/25 02:41:03;;;;;;;14.23;5.57;;;;;;;9.85;94.92;97720.88;4991279;28;20030;-75
2021/09/25 02:43:29;;;;;;;12.48;5.95;;;;;;;9.92;94.27;97721.41;4974832;28;20088;-76
2021/09/25 02:45:55;;;;;;;12.15;5.40;;;;;;;9.78;94.88;97719.53;4974994;28;20036;-76
2021/09/25 02:48:20;;;;;;;17.05;6.13;;;;;;;9.87;95.47;97736.84;4974620;28;20029;-76
2021/09/25 02:50:46;;;;;;;12.40;5.57;;;;;;;9.82;95.17;97748.63;4991302;28;20414;-76
2021/09/25 02:53:11;;;;;;;9.45;5.50;;;;;;;9.82;95.53;97732.59;4990999;28;20046;-75
2021/09/25 02:55:38;;;;;;;13.93;5.03;;;;;;;9.78;95.50;97743.56;4991222;28;20486;-76
2021/09/25 02:58:03;;;;;;;7.68;5.57;;;;;;;9.77;95.37;97755.19;4995723;28;20414;-76
2021/09/25 03:00:29;;;;;;;11.50;5.38;;;;;;;9.70;95.55;97743.97;4992124;28;20031;-76
2021/09/25 03:02:55;;;;;;;10.63;5.57;;;;;;;9.66;96.01;97758.44;4990929;28;20022;-76
2021/09/25 03:05:21;;;;;;;11.82;5.38;;;;;;;9.67;96.14;97753.97;4974534;28;20592;-75
2021/09/25 03:07:47;;;;;;;12.80;5.78;;;;;;;9.36;96.63;97722.72;4995430;28;20029;-75
2021/09/25 03:10:12;;;;;;;11.48;6.13;;;;;;;9.58;97.10;97754.47;4996010;28;20414;-75
2021/09/25 03:12:38;;;;;;;10.10;5.68;;;;;;;9.36;96.29;97713.84;4994616;28;20038;-75
2021/09/25 03:15:05;;;;;;;9.85;5.70;;;;;;;9.46;96.46;97723.09;4995883;28;20030;-76
2021/09/25 03:17:31;;;;;;;12.15;6.20;;;;;;;9.65;96.38;97764.75;4978266;28;20030;-76
2021/09/25 03:19:56;;;;;;;13.07;5.13;;;;;;;9.75;96.24;97775.78;4995677;28;20033;-75
2021/09/25 03:22:51;;;;;;;12.52;5.35;;;;;;;9.68;95.83;97777.06;4994599;28;20413;-75
2021/09/25 03:25:17;;;;;;;10.07;4.93;;;;;;;9.34;96.47;97735.31;4978507;28;20034;-76
2021/09/25 03:27:43;;;;;;;16.65;5.55;;;;;;;9.64;96.83;97788.84;4994419;28;20022;-76
2021/09/25 03:30:09;;;;;;;15.90;5.80;;;;;;;9.65;97.31;97782.56;4994161;28;20026;-75
2021/09/25 03:32:35;;;;;;;14.38;5.70;;;;;;;9.57;96.92;97774.97;4995425;28;20410;-76
2021/09/25 03:35:01;;;;;;;26.90;6.65;;;;;;;9.62;97.82;97793.41;4995449;28;20038;-76
2021/09/25 03:37:26;;;;;;;10.60;5.53;;;;;;;9.27;97.80;97753.44;4994018;28;20038;-75
2021/09/25 03:39:52;;;;;;;9.45;5.38;;;;;;;9.53;96.28;97807.25;4995384;28;20030;-76
2021/09/25 03:42:17;;;;;;;12.63;5.30;;;;;;;9.57;96.58;97811.47;4995069;28;20105;-76
2021/09/25 03:44:43;;;;;;;11.60;4.85;;;;;;;9.53;96.04;97802.78;4995236;28;20034;-75
2021/09/25 03:47:10;;;;;;;10.10;4.47;;;;;;;9.17;95.96;97760.22;4977842;28;20405;-76
2021/09/25 03:49:35;;;;;;;14.43;4.70;;;;;;;9.17;96.68;97778.91;4995410;28;20512;-76
2021/09/25 03:52:01;;;;;;;11.93;5.03;;;;;;;9.34;97.74;97811.84;4994159;28;20026;-75
2021/09/25 03:54:27;;;;;;;12.60;5.10;;;;;;;9.08;97.60;97766.03;4994911;28;20105;-75
2021/09/25 03:56:52;;;;;;;10.60;4.63;;;;;;;9.29;97.42;97795.22;4995113;28;20029;-76
2021/09/25 03:59:18;;;;;;;13.88;4.88;;;;;;;9.34;97.60;97819.84;4993554;28;20518;-76
2021/09/25 04:01:43;;;;;;;10.23;4.65;;;;;;;9.20;98.48;97797.41;4995010;28;20444;-76
2021/09/25 04:04:09;;;;;;;11.65;5.18;;;;;;;9.14;98.62;97779.06;4977396;28;20065;-77
2021/09/25 04:06:34;;;;;;;10.70;4.97;;;;;;;9.01;98.77;97759.28;4977097;28;20030;-75
2021/09/25 04:09:00;;;;;;;22.48;6.15;;;;;;;9.32;98.60;97816.41;4994832;28;20065;-75
2021/09/25 04:11:25;;;;;;;16.67;5.95;;;;;;;9.31;98.87;97820.03;4994634;28;20023;-76
2021/09/25 04:13:51;;;;;;;12.82;5.30;;;;;;;9.24;99.04;97809.66;4994895;28;20026;-75
2021/09/25 04:16:17;;;;;;;18.48;6.10;;;;;;;9.29;99.05;97821.91;4994819;28;20516;-75
2021/09/25 04:18:42;;;;;;;22.10;7.95;;;;;;;9.01;99.98;97796.63;4976788;28;20026;-76
2021/09/25 04:21:08;;;;;;;17.88;6.28;;;;;;;8.97;100.00;97795.09;4993367;28;20382;-76
2021/09/25 04:23:34;;;;;;;16.23;7.32;;;;;;;8.99;99.90;97789.66;4994511;28;20034;-75
2021/09/25 04:25:59;;;;;;;14.35;7.15;;;;;;;9.22;99.79;97838.25;4994615;28;20033;-76
2021/09/25 04:28:25;;;;;;;20.83;9.05;;;;;;;9.25;100.00;97845.22;4993190;28;20031;-76
2021/09/25 04:30:50;;;;;;;24.80;9.38;;;;;;;9.22;99.15;97840.91;4994612;28;20122;-76
2021/09/25 04:33:16;;;;;;;16.75;7.75;;;;;;;9.13;99.42;97820.06;4994388;28;20032;-75
2021/09/25 04:35:42;;;;;;;16.00;8.50;;;;;;;9.30;99.46;97858.31;4993940;28;20054;-75
2021/09/25 04:38:07;;;;;;;19.65;7.53;;;;;;;8.94;100.00;97797.91;4994332;28;20038;-75
2021/09/25 04:40:33;;;;;;;13.40;6.85;;;;;;;9.42;99.45;97858.56;4994009;28;20044;-75
2021/09/25 04:43:00;;;;;;;18.27;6.80;;;;;;;9.49;98.62;97861.75;4976462;28;20057;-76
2021/09/25 04:45:27;;;;;;;14.15;6.47;;;;;;;9.53;97.94;97874.88;4994096;28;20026;-75
2021/09/25 04:47:52;;;;;;;14.10;6.30;;;;;;;9.52;97.41;97866.94;4976685;28;20517;-75
2021/09/25 04:50:18;;;;;;;12.23;6.40;;;;;;;9.36;97.63;97860.66;4993964;28;20113;-75
2021/09/25 04:52:43;;;;;;;12.85;6.13;;;;;;;9.45;97.76;97868.19;4993942;28;20029;-76
2021/09/25 04:55:09;;;;;;;12.00;6.65;;;;;;;9.51;97.39;97870.53;4994193;28;20073;-76
2021/09/25 04:57:35;;;;;;;17.02;7.97;;;;;;;9.51;97.94;97882.09;4993992;28;20026;-82
2021/09/25 05:00:01;;;;;;;14.68;7.82;;;;;;;9.47;96.90;97850.31;4993133;28;20030;-78
2021/09/25 05:02:27;;;;;;;19.30;7.82;;;;;;;9.59;96.20;97841.66;4972817;28;20069;-78
2021/09/25 05:04:52;;;;;;;13.38;7.22;;;;;;;10.09;94.84;97868.31;4973906;28;20031;-75
2021/09/25 05:07:18;;;;;;;24.05;9.13;;;;;;;11.15;87.81;97856.84;4974305;28;20041;-76
2021/09/25 05:09:43;;;;;;;37.67;12.60;;;;;;;11.73;80.95;97865.81;4974826;28;20476;-83
2021/09/25 05:12:09;;;;;;;31.67;15.65;;;;;;;12.52;76.43;97880.44;4989610;28;20450;-81
2021/09/25 05:14:35;;;;;;;45.10;16.40;;;;;;;13.62;70.86;97897.31;4996463;28;20104;-83
2021/09/25 05:17:02;;;;;;;31.02;15.18;;;;;;;14.76;64.24;97884.66;4993088;28;20030;-80
2021/09/25 05:19:27;;;;;;;21.48;11.50;;;;;;;15.77;59.10;97870.69;5002725;28;20029;-83
2021/09/25 05:21:53;;;;;;;23.00;11.57;;;;;;;16.80;54.95;97880.34;4979633;28;20060;-77
2021/09/25 05:24:19;;;;;;;49.42;15.63;;;;;;;17.64;52.86;97895.84;5013560;28;20060;-79
2021/09/25 05:26:46;;;;;;;30.52;11.55;;;;;;;18.24;50.39;97902.41;4994975;28;20481;-77
2021/09/25 05:29:12;;;;;;;31.80;13.15;;;;;;;18.35;50.19;97891.47;4992791;28;20026;-82
2021/09/25 05:31:37;;;;;;;16.95;10.75;;;;;;;19.01;48.10;97871.03;4975901;28;20478;-75
2021/09/25 05:34:03;;;;;;;21.55;10.18;;;;;;;19.76;46.25;97878.56;5008608;28;20034;-76
2021/09/25 05:36:29;;;;;;;18.08;11.30;;;;;;;20.84;43.96;97882.59;4975936;28;20046;-76
2021/09/25 05:38:54;;;;;;;26.38;10.98;;;;;;;21.46;42.29;97870.94;5008435;28;20383;-78
2021/09/25 05:41:20;;;;;;;24.15;10.63;;;;;;;22.23;41.09;97862.97;5008351;28;20033;-77
2021/09/25 05:43:46;;;;;;;18.65;9.88;;;;;;;23.14;38.80;97867.72;5008277;28;20022;-77
2021/09/25 05:46:11;;;;;;;17.88;10.38;;;;;;;23.29;37.95;97861.63;4991495;28;20121;-81
2021/09/25 05:48:37;;;;;;;21.77;10.00;;;;;;;23.70;37.24;97830.66;5002549;28;20053;-83
2021/09/25 05:51:03;;;;;;;25.85;9.90;;;;;;;24.30;36.94;97874.94;4999350;28;20153;-83
2021/09/25 05:53:29;;;;;;;29.55;10.60;;;;;;;23.24;38.42;97875.78;4993734;28;20508;-83
2021/09/25 05:55:55;;;;;;;19.73;8.90;;;;;;;22.94;38.73;97879.06;5008309;28;20105;-76
2021/09/25 05:58:20;;;;;;;17.33;8.30;;;;;;;23.51;37.65;97877.41;4997468;28;20089;-77
2021/09/25 06:00:46;;;;;;;19.95;7.78;;;;;;;23.67;37.82;97871.97;4981769;28;20030;-81
2021/09/25 06:03:11;;;;;;;17.50;7.90;;;;;;;23.49;37.64;97860.34;5000914;28;20045;-78
2021/09/25 06:05:37;;;;;;;16.77;7.18;;;;;;;24.52;36.38;97885.13;5008875;28;20026;-78
2021/09/25 06:08:03;;;;;;;10.98;7.00;;;;;;;24.58;35.98;97868.00;5000854;28;20040;-79
2021/09/25 06:10:29;;;;;;;22.92;8.40;;;;;;;23.85;37.56;97893.66;4992251;28;20065;-77
2021/09/25 06:12:55;;;;;;;46.63;9.95;;;;;;;22.50;39.42;97886.47;4992012;28;20022;-76
2021/09/25 06:15:20;;;;;;;28.55;9.48;;;;;;;22.60;39.88;97903.59;4994213;28;20025;-79
2021/09/25 06:17:46;;;;;;;25.77;8.18;;;;;;;24.51;36.42;97871.63;4989308;28;20509;-80
2021/09/25 06:20:12;;;;;;;24.60;9.05;;;;;;;24.84;35.88;97897.91;4977086;28;20391;-78
2021/09/25 06:22:39;;;;;;;15.95;8.27;;;;;;;23.98;36.54;97883.09;4992093;28;20023;-78
2021/09/25 06:25:05;;;;;;;18.98;7.60;;;;;;;24.77;35.92;97885.94;4993808;28;20437;-76
2021/09/25 06:27:31;;;;;;;14.23;7.05;;;;;;;25.68;33.90;97864.34;4991700;28;20023;-77
2021/09/25 06:29:57;;;;;;;19.75;7.03;;;;;;;25.56;34.02;97887.72;4991625;28;20418;-77
2021/09/25 06:32:22;;;;;;;14.50;7.75;;;;;;;26.26;33.35;97883.78;4991335;28;20060;-77
2021/09/25 06:34:48;;;;;;;13.70;6.65;;;;;;;27.16;31.58;97873.56;4992659;28;20026;-77
2021/09/25 06:37:13;;;;;;;12.32;5.85;;;;;;;27.77;30.70;97874.13;4981063;28;20049;-81
2021/09/25 06:39:39;;;;;;;19.00;7.97;;;;;;;27.67;30.97;97874.44;4976551;28;20030;-75
2021/09/25 06:42:20;;;;;;;16.73;5.35;;;;;;;28.08;29.91;97874.69;5012700;28;20054;-77
2021/09/25 06:44:51;;;;;;;15.25;5.22;;;;;;;28.74;28.41;97867.00;4992738;28;20594;-77
2021/09/25 06:47:16;;;;;;;13.05;5.45;;;;;;;27.97;29.93;97884.28;5000997;28;20070;-77
2021/09/25 06:49:42;;;;;;;25.05;6.18;;;;;;;28.12;29.59;97873.22;4995071;28;20030;-77
2021/09/25 06:52:10;;;;;;;12.75;6.20;;;;;;;27.63;30.05;97883.25;4996559;28;20030;-76
2021/09/25 06:54:37;;;;;;;16.65;8.13;;;;;;;28.21;30.33;97898.72;4996300;28;20057;-78
2021/09/25 06:57:03;;;;;;;14.88;5.38;;;;;;;27.90;30.20;97890.78;4995596;28;20506;-77
2021/09/25 06:59:29;;;;;;;16.80;5.43;;;;;;;28.31;29.67;97883.56;4997669;28;20126;-78
2021/09/25 07:01:54;;;;;;;13.07;4.60;;;;;;;28.43;29.32;97892.13;4998035;28;20124;-77
2021/09/25 07:04:20;;;;;;;9.45;4.50;;;;;;;29.28;27.83;97883.69;5014306;28;20057;-77
2021/09/25 07:06:45;;;;;;;7.85;4.25;;;;;;;27.97;29.71;97895.28;4997874;28;20446;-77
2021/09/25 07:09:14;;;;;;;6.47;3.95;;;;;;;28.71;28.61;97887.53;5006282;28;20117;-77
2021/09/25 07:11:48;;;;;;;6.75;4.07;;;;;;;28.55;28.22;97878.69;4996024;28;20085;-77
2021/09/25 07:14:13;;;;;;;8.43;4.13;;;;;;;28.54;28.91;97880.59;4994601;28;20030;-77
2021/09/25 07:16:39;;;;;;;9.15;3.83;;;;;;;29.66;27.44;97895.91;4978079;28;20081;-78
2021/09/25 07:19:09;;;;;;;12.43;4.80;;;;;;;29.09;28.01;97888.00;4979906;28;20034;-77
2021/09/25 07:21:35;;;;;;;6.82;4.15;;;;;;;29.37;27.96;97894.34;4979343;28;20022;-76
2021/09/25 07:24:00;;;;;;;9.52;5.40;;;;;;;28.81;28.62;97888.03;4994530;28;20038;-77
2021/09/25 07:26:26;;;;;;;11.85;5.32;;;;;;;29.76;28.04;97885.34;5013820;28;20029;-77
2021/09/25 07:28:52;;;;;;;9.45;6.45;;;;;;;30.07;26.98;97879.31;5001989;28;20493;-77
2021/09/25 07:31:18;;;;;;;13.57;6.65;;;;;;;30.74;26.50;97887.41;4989124;28;20037;-76
2021/09/25 07:33:43;;;;;;;19.52;6.53;;;;;;;30.92;26.42;97884.00;4979866;28;20113;-77
2021/09/25 07:36:09;;;;;;;13.45;6.72;;;;;;;31.00;26.61;97878.28;4974290;28;20074;-77
2021/09/25 07:38:34;;;;;;;14.40;6.13;;;;;;;31.10;26.60;97884.22;5010963;28;20037;-78
2021/09/25 07:41:01;;;;;;;17.40;7.15;;;;;;;31.17;26.17;97876.75;5013488;28;20085;-77
2021/09/25 07:43:26;;;;;;;12.30;7.25;;;;;;;30.51;26.99;97879.59;4997500;28;20025;-77
2021/09/25 07:45:54;;;;;;;20.85;7.72;;;;;;;30.46;27.12;97886.78;5013549;28;20461;-77
2021/09/25 07:48:21;;;;;;;13.95;7.25;;;;;;;30.60;26.76;97883.84;5014961;28;20069;-76
2021/09/25 07:50:46;;;;;;;11.45;7.32;;;;;;;29.80;28.06;97872.00;5013610;28;20485;-77
2021/09/25 07:53:12;;;;;;;9.25;6.53;;;;;;;30.89;26.72;97882.50;5014322;28;20026;-77
2021/09/25 07:55:37;;;;;;;12.73;6.35;;;;;;;30.67;27.42;97882.97;5015051;28;20022;-77
2021/09/25 07:58:03;;;;;;;11.95;6.78;;;;;;;32.02;26.25;97875.56;5015167;28;20026;-78
2021/09/25 08:00:29;;;;;;;15.23;6.57;;;;;;;32.11;25.88;97860.41;5013300;28;20029;-77
2021/09/25 08:02:54;;;;;;;13.82;6.10;;;;;;;32.21;25.10;97872.66;4996802;28;20026;-77
2021/09/25 08:05:20;;;;;;;8.45;5.20;;;;;;;31.95;25.73;97878.34;4997134;28;20030;-77
2021/09/25 08:07:46;;;;;;;11.13;5.55;;;;;;;31.58;26.21;97874.50;5013706;28;20026;-77
2021/09/25 08:10:13;;;;;;;12.32;5.05;;;;;;;32.91;25.07;97880.84;5012373;28;20029;-77
2021/09/25 08:12:39;;;;;;;12.98;6.75;;;;;;;32.71;25.01;97872.72;4995426;28;20026;-77
2021/09/25 08:15:06;;;;;;;11.15;5.35;;;;;;;32.40;25.73;97869.97;4995402;28;20429;-80
2021/09/25 08:17:32;;;;;;;13.68;5.82;;;;;;;33.44;24.58;97873.66;5009693;28;20018;-78
2021/09/25 08:19:58;;;;;;;14.45;4.63;;;;;;;33.27;24.54;97872.59;4993603;28;20382;-76
2021/09/25 08:22:23;;;;;;;8.18;5.55;;;;;;;32.57;25.50;97874.78;4993692;28;20056;-76
2021/09/25 08:24:49;;;;;;;5.82;4.75;;;;;;;32.83;24.73;97870.03;4993349;28;20088;-79
2021/09/25 08:27:15;;;;;;;17.13;5.85;;;;;;;33.13;24.79;97877.44;4993408;28;20029;-79
2021/09/25 08:29:41;;;;;;;10.85;5.43;;;;;;;33.03;24.73;97870.69;4994536;28;20058;-79
2021/09/25 08:32:07;;;;;;;9.23;5.43;;;;;;;33.70;24.38;97873.38;5012762;28;20054;-78
2021/09/25 08:34:33;;;;;;;9.95;4.10;;;;;;;35.48;21.91;97868.50;5014097;28;20073;-78
2021/09/25 08:36:58;;;;;;;13.93;5.38;;;;;;;35.94;21.54;97869.50;4976604;28;20050;-78
2021/09/25 08:39:24;;;;;;;9.23;4.78;;;;;;;36.43;21.06;97866.84;4992926;28;20505;-78
2021/09/25 08:41:51;;;;;;;11.45;5.00;;;;;;;36.65;20.68;97841.03;5009399;28;20034;-78
2021/09/25 08:44:17;;;;;;;6.55;3.75;;;;;;;35.86;21.53;97852.09;5006751;28;20470;-77
2021/09/25 08:46:42;;;;;;;8.75;3.70;;;;;;;35.11;22.13;97850.44;4993204;28;20127;-78
2021/09/25 08:49:08;;;;;;;7.63;4.70;;;;;;;35.22;22.56;97867.13;5003765;28;20482;-78
2021/09/25 08:51:35;;;;;;;8.27;4.10;;;;;;;36.34;21.47;97839.63;4994552;28;20026;-78
2021/09/25 08:54:02;;;;;;;10.82;5.65;;;;;;;36.38;21.44;97860.34;5009322;28;20057;-77
2021/09/25 08:56:29;;;;;;;10.88;5.63;;;;;;;36.34;20.97;97851.63;5009664;28;20095;-78
2021/09/25 08:58:55;;;;;;;6.00;3.45;;;;;;;36.00;21.56;97849.00;4996630;28;20034;-79
2021/09/25 09:01:23;;;;;;;11.95;5.43;;;;;;;36.72;21.23;97850.94;5012440;28;20391;-78
2021/09/25 09:03:53;;;;;;;9.80;4.00;;;;;;;36.43;21.18;97852.91;4998221;28;20022;-78
2021/09/25 09:06:23;;;;;;;4.75;2.80;;;;;;;36.92;20.30;97840.06;4994478;28;20407;-78
2021/09/25 09:08:51;;;;;;;8.57;3.23;;;;;;;36.98;20.72;97848.53;5009081;28;20417;-78
2021/09/25 09:11:18;;;;;;;8.48;2.95;;;;;;;36.67;20.84;97836.88;4992660;28;20265;-78
2021/09/25 09:14:00;;;;;;;3.65;2.92;;;;;;;35.93;21.39;97840.81;5009330;28;20102;-78
2021/09/25 09:16:26;;;;;;;5.05;2.80;;;;;;;35.54;21.82;97853.63;4992552;28;20037;-78
2021/09/25 09:18:55;;;;;;;6.75;3.60;;;;;;;36.55;21.06;97838.91;4992328;28;20034;-77
2021/09/25 09:21:23;;;;;;;6.57;3.67;;;;;;;37.48;20.37;97843.72;5008768;28;20037;-78
2021/09/25 09:23:52;;;;;;;8.48;3.10;;;;;;;37.49;20.31;97838.97;4994102;28;20046;-78
2021/09/25 09:26:23;;;;;;;4.28;2.92;;;;;;;37.73;20.30;97835.66;4991525;28;20416;-79
2021/09/25 09:28:53;;;;;;;4.15;2.65;;;;;;;37.49;20.31;97839.84;4975782;28;20030;-79
2021/09/25 09:31:20;;;;;;;8.87;3.23;;;;;;;37.31;20.52;97837.31;4992174;28;20018;-79
2021/09/25 09:33:49;;;;;;;7.38;3.40;;;;;;;37.11;20.62;97849.03;4991995;28;20300;-79
2021/09/25 09:36:41;;;;;;;7.45;2.85;;;;;;;34.76;22.56;97840.13;4992536;28;20057;-79
2021/09/25 09:39:14;;;;;;;3.75;2.78;;;;;;;35.02;22.87;97846.28;4992272;28;20045;-78
2021/09/25 09:41:51;;;;;;;5.47;3.00;;;;;;;36.20;21.78;97846.63;4992088;28;20177;-79
2021/09/25 09:44:22;;;;;;;5.20;2.80;;;;;;;35.37;22.35;97847.13;5000023;28;20536;-78
2021/09/25 09:46:52;;;;;;;9.32;3.60;;;;;;;36.11;21.95;97848.13;4994924;28;20021;-79
2021/09/25 09:49:28;;;;;;;5.35;3.10;;;;;;;37.37;21.07;97839.94;4994989;28;20623;-78
2021/09/25 09:51:56;;;;;;;3.88;3.10;;;;;;;37.84;20.24;97842.22;5011157;28;20400;-78
2021/09/25 09:54:31;;;;;;;4.45;2.78;;;;;;;37.60;20.80;97830.47;4995198;28;20029;-79
2021/09/25 09:57:02;;;;;;;4.00;2.80;;;;;;;36.45;21.72;97843.44;4983463;28;20033;-79
2021/09/25 09:59:28;;;;;;;5.53;2.63;;;;;;;36.94;21.33;97843.47;5007982;28;20038;-78
2021/09/25 10:01:54;;;;;;;3.42;3.03;;;;;;;38.21;20.20;97839.59;4991497;28;20101;-79
2021/09/25 10:04:20;;;;;;;6.50;2.97;;;;;;;36.72;21.32;97838.91;4991591;28;20030;-78
2021/09/25 10:06:47;;;;;;;8.43;4.00;;;;;;;38.27;19.89;97844.13;4975083;28;20033;-78
2021/09/25 10:09:20;;;;;;;7.47;4.00;;;;;;;37.30;21.03;97839.28;4985902;28;20033;-79
2021/09/25 10:11:53;;;;;;;4.35;2.95;;;;;;;37.30;20.70;97832.84;4994556;28;20025;-79
2021/09/25 10:14:27;;;;;;;8.73;3.95;;;;;;;37.37;20.81;97827.91;5004038;28;20456;-79
2021/09/25 10:16:55;;;;;;;5.78;3.80;;;;;;;37.47;20.67;97842.06;5010732;28;20073;-79
2021/09/25 10:19:22;;;;;;;5.93;4.85;;;;;;;38.75;19.59;97838.41;5012392;28;20029;-78
2021/09/25 10:21:55;;;;;;;4.80;3.53;;;;;;;38.21;20.40;97847.97;5010990;28;20084;-79
2021/09/25 10:24:25;;;;;;;7.03;3.50;;;;;;;38.04;20.01;97836.88;4994824;28;20386;-79
2021/09/25 10:26:51;;;;;;;7.18;4.35;;;;;;;38.35;19.87;97836.13;4994864;28;20026;-79
2021/09/25 10:29:22;;;;;;;6.90;3.55;;;;;;;35.32;22.41;97839.50;5011122;28;20036;-79
2021/09/25 10:31:49;;;;;;;6.95;5.05;;;;;;;35.23;22.93;97832.63;5010929;28;20014;-79
2021/09/25 10:34:19;;;;;;;10.52;6.03;;;;;;;35.12;23.56;97836.28;5010670;28;20489;-79
2021/09/25 10:36:54;;;;;;;5.72;3.13;;;;;;;36.04;22.36;97836.25;5010618;28;20136;-79
2021/09/25 10:39:36;;;;;;;4.55;3.92;;;;;;;36.68;21.84;97838.56;4983434;28;20072;-78
2021/09/25 10:42:10;;;;;;;5.60;2.53;;;;;;;37.49;21.05;97838.97;4992786;28;20032;-79
2021/09/25 10:44:47;;;;;;;3.35;2.78;;;;;;;37.12;21.26;97821.97;4974907;28;20512;-77
2021/09/25 10:47:22;;;;;;;3.20;2.88;;;;;;;36.57;21.80;97830.31;4974950;28;20478;-77
2021/09/25 10:49:50;;;;;;;3.92;2.55;;;;;;;36.73;21.57;97827.50;4991503;28;20490;-77
2021/09/25 10:52:19;;;;;;;9.52;2.90;;;;;;;37.78;20.27;97830.13;4974972;28;20089;-78
2021/09/25 10:54:45;;;;;;;3.35;2.50;;;;;;;37.96;20.63;97821.41;4991367;28;20478;-77
2021/09/25 10:57:18;;;;;;;3.55;2.70;;;;;;;37.09;21.44;97822.50;4983710;28;20038;-78
2021/09/25 11:00:11;;;;;;;4.15;2.80;;;;;;;37.09;20.82;97814.13;4994562;28;20033;-78
2021/09/25 11:02:41;;;;;;;5.72;2.80;;;;;;;37.74;21.05;97805.78;5012000;28;20115;-78
2021/09/25 11:05:07;;;;;;;5.28;4.78;;;;;;;37.47;20.70;97806.56;4994267;28;20026;-78
2021/09/25 11:07:37;;;;;;;4.95;2.85;;;;;;;37.87;20.76;97820.16;5012062;28;20039;-78
2021/09/25 11:10:03;;;;;;;3.72;2.30;;;;;;;39.12;19.57;97821.63;4994482;28;20034;-78
2021/09/25 11:12:42;;;;;;;5.97;2.60;;;;;;;38.48;19.69;97802.13;5010588;28;20100;-78
2021/09/25 11:15:31;;;;;;;2.75;2.17;;;;;;;36.84;21.55;97798.66;5010876;28;20386;-78
2021/09/25 11:18:25;;;;;;;3.67;3.10;;;;;;;37.43;21.17;97798.97;4977936;28;20029;-77
2021/09/25 11:20:51;;;;;;;3.20;2.70;;;;;;;35.95;22.41;97782.03;5010791;28;20021;-79
2021/09/25 11:23:17;;;;;;;4.07;2.45;;;;;;;35.21;23.05;97773.59;5009352;28;20029;-78
2021/09/25 11:25:49;;;;;;;4.80;2.55;;;;;;;36.80;22.00;97785.47;4991184;28;20132;-79
2021/09/25 11:28:22;;;;;;;5.90;2.95;;;;;;;37.68;21.46;97788.13;4994296;28;20022;-77
2021/09/25 11:30:47;;;;;;;2.85;2.63;;;;;;;38.20;20.05;97782.81;4994729;28;20409;-78
2021/09/25 11:33:13;;;;;;;2.97;2.67;;;;;;;38.64;19.71;97785.47;4994364;28;20022;-78
2021/09/25 11:35:38;;;;;;;4.57;2.17;;;;;;;37.89;20.62;97784.44;4994588;28;20033;-78
2021/09/25 11:38:12;;;;;;;2.70;2.50;;;;;;;36.89;21.75;97778.34;4994550;28;20034;-78